sensor_id;sensor_type;location;lat;lon;timestamp;P1;durP1;ratioP1;P2;durP2;ratioP2
50165;SDS011;36071;48.140;11.516;2023-02-28T00:03:29;6.3;;;3.4;;
50165;SDS011;36071;48.140;11.516;2023-02-28T00:08:29;5.5;;;3.2;;
50165;SDS011;36071;48.140;11.516;2023-02-28T00:13:29;7.5;;;3.2;;
50165;SDS011;36071;48.140;11.516;2023-02-28T00:18:29;6.5;;;3.1;;
50165;SDS011;36071;48.140;11.516;2023-02-28T00:23:29;6.5;;;3.5;;
50165;SDS011;36071;48.140;11.516;2023-02-28T00:28:29;6.7;;;3.8;;
50165;SDS011;36071;48.140;11.516;2023-02-28T00:33:29;7.2;;;3.5;;
50165;SDS011;36071;48.140;11.516;2023-02-28T00:38:29;7.0;;;3.7;;
50165;SDS011;36071;48.140;11.516;2023-02-28T00:43:29;5.1;;;3.2;;
50165;SDS011;36071;48.140;11.516;2023-02-28T00:48:29;8.2;;;3.4;;
50165;SDS011;36071;48.140;11.516;2023-02-28T00:53:29;7.3;;;3.2;;
50165;SDS011;36071;48.140;11.516;2023-02-28T00:58:29;5.7;;;3.1;;
50165;SDS011;36071;48.140;11.516;2023-02-28T01:03:29;6.6;;;3.5;;
50165;SDS011;36071;48.140;11.516;2023-02-28T01:08:29;8.5;;;3.9;;
50165;SDS011;36071;48.140;11.516;2023-02-28T01:13:29;6.1;;;3.4;;
50165;SDS011;36071;48.140;11.516;2023-02-28T01:18:29;9.5;;;3.9;;
50165;SDS011;36071;48.140;11.516;2023-02-28T01:23:29;7.7;;;3.4;;
50165;SDS011;36071;48.140;11.516;2023-02-28T01:28:29;7.8;;;3.9;;
50165;SDS011;36071;48.140;11.516;2023-02-28T01:33:29;7.1;;;3.4;;
50165;SDS011;36071;48.140;11.516;2023-02-28T01:38:29;7.3;;;4.0;;
50165;SDS011;36071;48.140;11.516;2023-02-28T01:43:29;7.2;;;3.8;;
50165;SDS011;36071;48.140;11.516;2023-02-28T01:48:30;9.3;;;3.8;;
50165;SDS011;36071;48.140;11.516;2023-02-28T01:53:29;7.3;;;3.8;;
50165;SDS011;36071;48.140;11.516;2023-02-28T01:58:29;6.7;;;3.9;;
50165;SDS011;36071;48.140;11.516;2023-02-28T02:03:29;7.6;;;4.0;;
50165;SDS011;36071;48.140;11.516;2023-02-28T02:08:29;7.3;;;3.5;;
50165;SDS011;36071;48.140;11.516;2023-02-28T02:13:33;8.0;;;3.9;;
50165;SDS011;36071;48.140;11.516;2023-02-28T02:18:30;6.9;;;3.8;;
50165;SDS011;36071;48.140;11.516;2023-02-28T02:23:33;7.4;;;3.8;;
50165;SDS011;36071;48.140;11.516;2023-02-28T02:28:35;6.2;;;3.7;;
50165;SDS011;36071;48.140;11.516;2023-02-28T02:33:43;7.5;;;3.9;;
50165;SDS011;36071;48.140;11.516;2023-02-28T02:38:31;8.0;;;3.8;;
50165;SDS011;36071;48.140;11.516;2023-02-28T02:43:29;6.9;;;3.7;;
50165;SDS011;36071;48.140;11.516;2023-02-28T02:48:30;7.3;;;3.9;;
50165;SDS011;36071;48.140;11.516;2023-02-28T02:53:29;9.1;;;4.2;;
50165;SDS011;36071;48.140;11.516;2023-02-28T02:58:30;9.1;;;4.5;;
50165;SDS011;36071;48.140;11.516;2023-02-28T03:03:29;6.4;;;3.8;;
50165;SDS011;36071;48.140;11.516;2023-02-28T03:08:29;7.8;;;3.9;;
50165;SDS011;36071;48.140;11.516;2023-02-28T03:13:48;7.8;;;4.4;;
50165;SDS011;36071;48.140;11.516;2023-02-28T03:18:30;8.0;;;4.3;;
50165;SDS011;36071;48.140;11.516;2023-02-28T03:23:30;8.2;;;4.2;;
50165;SDS011;36071;48.140;11.516;2023-02-28T03:28:31;9.1;;;5.0;;
50165;SDS011;36071;48.140;11.516;2023-02-28T03:33:30;9.6;;;4.7;;
50165;SDS011;36071;48.140;11.516;2023-02-28T03:38:29;10.5;;;5.2;;
50165;SDS011;36071;48.140;11.516;2023-02-28T03:43:29;9.6;;;5.1;;
50165;SDS011;36071;48.140;11.516;2023-02-28T03:48:30;9.5;;;5.6;;
50165;SDS011;36071;48.140;11.516;2023-02-28T03:53:30;10.2;;;5.7;;
50165;SDS011;36071;48.140;11.516;2023-02-28T03:58:30;9.4;;;5.2;;
50165;SDS011;36071;48.140;11.516;2023-02-28T04:03:29;9.3;;;5.2;;
50165;SDS011;36071;48.140;11.516;2023-02-28T04:08:29;10.1;;;5.5;;
50165;SDS011;36071;48.140;11.516;2023-02-28T04:13:29;12.3;;;6.5;;
50165;SDS011;36071;48.140;11.516;2023-02-28T04:23:29;11.7;;;7.0;;
50165;SDS011;36071;48.140;11.516;2023-02-28T04:28:29;11.5;;;6.4;;
50165;SDS011;36071;48.140;11.516;2023-02-28T04:33:30;20.5;;;10.2;;
50165;SDS011;36071;48.140;11.516;2023-02-28T04:38:29;60.9;;;22.6;;
50165;SDS011;36071;48.140;11.516;2023-02-28T04:43:29;24.7;;;10.4;;
50165;SDS011;36071;48.140;11.516;2023-02-28T04:48:30;15.9;;;8.0;;
50165;SDS011;36071;48.140;11.516;2023-02-28T04:53:29;15.3;;;7.7;;
50165;SDS011;36071;48.140;11.516;2023-02-28T04:58:29;15.9;;;8.4;;
50165;SDS011;36071;48.140;11.516;2023-02-28T05:03:29;14.2;;;8.1;;
50165;SDS011;36071;48.140;11.516;2023-02-28T05:08:29;13.4;;;7.8;;
50165;SDS011;36071;48.140;11.516;2023-02-28T05:13:29;17.7;;;8.6;;
50165;SDS011;36071;48.140;11.516;2023-02-28T05:18:29;15.5;;;8.7;;
50165;SDS011;36071;48.140;11.516;2023-02-28T05:23:29;18.6;;;9.5;;
50165;SDS011;36071;48.140;11.516;2023-02-28T05:28:29;17.2;;;8.9;;
50165;SDS011;36071;48.140;11.516;2023-02-28T05:33:29;17.6;;;9.3;;
50165;SDS011;36071;48.140;11.516;2023-02-28T05:38:29;19.2;;;9.8;;
50165;SDS011;36071;48.140;11.516;2023-02-28T05:43:29;18.7;;;10.3;;
50165;SDS011;36071;48.140;11.516;2023-02-28T05:48:29;17.4;;;9.7;;
50165;SDS011;36071;48.140;11.516;2023-02-28T05:53:29;20.5;;;11.3;;
50165;SDS011;36071;48.140;11.516;2023-02-28T05:58:29;18.1;;;10.7;;
50165;SDS011;36071;48.140;11.516;2023-02-28T06:03:29;20.1;;;11.2;;
50165;SDS011;36071;48.140;11.516;2023-02-28T06:08:29;21.1;;;11.5;;
50165;SDS011;36071;48.140;11.516;2023-02-28T06:13:36;22.8;;;12.1;;
50165;SDS011;36071;48.140;11.516;2023-02-28T06:18:29;24.1;;;12.8;;
50165;SDS011;36071;48.140;11.516;2023-02-28T06:23:29;24.9;;;12.3;;
50165;SDS011;36071;48.140;11.516;2023-02-28T06:28:29;27.0;;;13.3;;
50165;SDS011;36071;48.140;11.516;2023-02-28T06:33:31;24.4;;;13.6;;
50165;SDS011;36071;48.140;11.516;2023-02-28T06:38:29;24.6;;;13.1;;
50165;SDS011;36071;48.140;11.516;2023-02-28T06:43:31;23.9;;;14.2;;
50165;SDS011;36071;48.140;11.516;2023-02-28T06:48:29;25.7;;;14.6;;
50165;SDS011;36071;48.140;11.516;2023-02-28T06:53:29;24.4;;;14.3;;
50165;SDS011;36071;48.140;11.516;2023-02-28T06:58:29;23.6;;;13.8;;
50165;SDS011;36071;48.140;11.516;2023-02-28T07:03:29;25.8;;;14.2;;
50165;SDS011;36071;48.140;11.516;2023-02-28T07:08:29;24.5;;;14.2;;
50165;SDS011;36071;48.140;11.516;2023-02-28T07:13:29;25.8;;;13.9;;
50165;SDS011;36071;48.140;11.516;2023-02-28T07:18:29;24.3;;;14.4;;
50165;SDS011;36071;48.140;11.516;2023-02-28T07:23:29;24.1;;;13.4;;
50165;SDS011;36071;48.140;11.516;2023-02-28T07:28:29;32.1;;;15.6;;
50165;SDS011;36071;48.140;11.516;2023-02-28T07:33:29;27.5;;;14.6;;
50165;SDS011;36071;48.140;11.516;2023-02-28T07:38:29;25.8;;;14.2;;
50165;SDS011;36071;48.140;11.516;2023-02-28T07:43:29;24.8;;;14.3;;
50165;SDS011;36071;48.140;11.516;2023-02-28T07:48:29;28.5;;;15.2;;
50165;SDS011;36071;48.140;11.516;2023-02-28T07:53:29;27.4;;;14.7;;
50165;SDS011;36071;48.140;11.516;2023-02-28T07:58:29;28.3;;;15.1;;
50165;SDS011;36071;48.140;11.516;2023-02-28T08:03:29;28.9;;;14.5;;
50165;SDS011;36071;48.140;11.516;2023-02-28T08:08:29;25.4;;;14.6;;
50165;SDS011;36071;48.140;11.516;2023-02-28T08:13:29;28.0;;;15.4;;
50165;SDS011;36071;48.140;11.516;2023-02-28T08:18:29;29.7;;;15.3;;
50165;SDS011;36071;48.140;11.516;2023-02-28T08:23:29;26.1;;;15.1;;
50165;SDS011;36071;48.140;11.516;2023-02-28T08:28:29;25.6;;;14.8;;
50165;SDS011;36071;48.140;11.516;2023-02-28T08:33:29;27.4;;;15.1;;
50165;SDS011;36071;48.140;11.516;2023-02-28T08:38:29;26.1;;;14.3;;
50165;SDS011;36071;48.140;11.516;2023-02-28T08:43:29;24.1;;;14.4;;
50165;SDS011;36071;48.140;11.516;2023-02-28T08:48:29;26.3;;;15.8;;
50165;SDS011;36071;48.140;11.516;2023-02-28T08:53:29;37.3;;;20.3;;
50165;SDS011;36071;48.140;11.516;2023-02-28T08:58:29;44.3;;;21.8;;
50165;SDS011;36071;48.140;11.516;2023-02-28T09:03:29;34.1;;;18.8;;
50165;SDS011;36071;48.140;11.516;2023-02-28T09:08:29;31.0;;;17.9;;
50165;SDS011;36071;48.140;11.516;2023-02-28T09:13:29;57.9;;;30.3;;
50165;SDS011;36071;48.140;11.516;2023-02-28T09:18:29;33.2;;;17.6;;
50165;SDS011;36071;48.140;11.516;2023-02-28T09:23:29;26.6;;;15.2;;
50165;SDS011;36071;48.140;11.516;2023-02-28T09:33:29;27.0;;;14.8;;
50165;SDS011;36071;48.140;11.516;2023-02-28T09:38:29;24.7;;;15.3;;
50165;SDS011;36071;48.140;11.516;2023-02-28T09:43:34;24.3;;;14.9;;
50165;SDS011;36071;48.140;11.516;2023-02-28T09:48:31;29.5;;;15.9;;
50165;SDS011;36071;48.140;11.516;2023-02-28T09:53:30;24.2;;;15.0;;
50165;SDS011;36071;48.140;11.516;2023-02-28T09:58:30;25.2;;;15.4;;
50165;SDS011;36071;48.140;11.516;2023-02-28T10:03:30;25.7;;;15.2;;
50165;SDS011;36071;48.140;11.516;2023-02-28T10:08:30;26.2;;;15.5;;
50165;SDS011;36071;48.140;11.516;2023-02-28T10:13:32;23.8;;;14.7;;
50165;SDS011;36071;48.140;11.516;2023-02-28T10:18:30;23.7;;;14.9;;
50165;SDS011;36071;48.140;11.516;2023-02-28T10:23:31;25.0;;;14.0;;
50165;SDS011;36071;48.140;11.516;2023-02-28T10:28:29;30.7;;;14.9;;
50165;SDS011;36071;48.140;11.516;2023-02-28T10:33:30;26.2;;;14.5;;
50165;SDS011;36071;48.140;11.516;2023-02-28T10:38:33;26.5;;;14.3;;
50165;SDS011;36071;48.140;11.516;2023-02-28T10:43:29;28.1;;;14.3;;
50165;SDS011;36071;48.140;11.516;2023-02-28T10:48:30;25.1;;;14.6;;
50165;SDS011;36071;48.140;11.516;2023-02-28T10:53:33;23.6;;;13.5;;
50165;SDS011;36071;48.140;11.516;2023-02-28T10:58:30;20.8;;;13.4;;
50165;SDS011;36071;48.140;11.516;2023-02-28T11:03:30;69.5;;;35.8;;
50165;SDS011;36071;48.140;11.516;2023-02-28T11:08:29;21.9;;;13.7;;
50165;SDS011;36071;48.140;11.516;2023-02-28T11:13:30;44.9;;;17.6;;
50165;SDS011;36071;48.140;11.516;2023-02-28T11:18:29;33.2;;;15.4;;
50165;SDS011;36071;48.140;11.516;2023-02-28T11:23:30;25.7;;;13.9;;
50165;SDS011;36071;48.140;11.516;2023-02-28T11:28:29;22.1;;;13.5;;
50165;SDS011;36071;48.140;11.516;2023-02-28T11:33:29;21.6;;;13.6;;
50165;SDS011;36071;48.140;11.516;2023-02-28T11:38:29;27.3;;;13.5;;
50165;SDS011;36071;48.140;11.516;2023-02-28T11:43:32;20.2;;;12.7;;
50165;SDS011;36071;48.140;11.516;2023-02-28T11:48:31;21.9;;;13.3;;
50165;SDS011;36071;48.140;11.516;2023-02-28T11:53:35;20.4;;;13.1;;
50165;SDS011;36071;48.140;11.516;2023-02-28T11:58:32;66.0;;;35.6;;
50165;SDS011;36071;48.140;11.516;2023-02-28T12:03:31;58.2;;;33.2;;
50165;SDS011;36071;48.140;11.516;2023-02-28T12:08:37;26.3;;;15.9;;
50165;SDS011;36071;48.140;11.516;2023-02-28T12:13:29;21.1;;;13.7;;
50165;SDS011;36071;48.140;11.516;2023-02-28T12:18:34;20.6;;;12.9;;
50165;SDS011;36071;48.140;11.516;2023-02-28T12:23:56;22.6;;;13.3;;
50165;SDS011;36071;48.140;11.516;2023-02-28T12:28:30;18.0;;;12.8;;
50165;SDS011;36071;48.140;11.516;2023-02-28T12:33:31;17.2;;;10.9;;
50165;SDS011;36071;48.140;11.516;2023-02-28T12:38:29;16.8;;;12.0;;
50165;SDS011;36071;48.140;11.516;2023-02-28T12:43:30;17.2;;;11.7;;
50165;SDS011;36071;48.140;11.516;2023-02-28T12:48:29;15.3;;;10.6;;
50165;SDS011;36071;48.140;11.516;2023-02-28T12:53:31;16.8;;;11.0;;
50165;SDS011;36071;48.140;11.516;2023-02-28T12:58:30;15.7;;;10.9;;
50165;SDS011;36071;48.140;11.516;2023-02-28T13:03:34;16.2;;;10.8;;
50165;SDS011;36071;48.140;11.516;2023-02-28T13:08:42;14.2;;;10.0;;
50165;SDS011;36071;48.140;11.516;2023-02-28T13:13:29;15.6;;;10.6;;
50165;SDS011;36071;48.140;11.516;2023-02-28T13:18:30;18.1;;;9.8;;
50165;SDS011;36071;48.140;11.516;2023-02-28T13:28:59;16.9;;;10.2;;
50165;SDS011;36071;48.140;11.516;2023-02-28T13:33:29;14.5;;;10.6;;
50165;SDS011;36071;48.140;11.516;2023-02-28T13:38:33;15.9;;;10.5;;
50165;SDS011;36071;48.140;11.516;2023-02-28T13:43:58;15.8;;;10.5;;
50165;SDS011;36071;48.140;11.516;2023-02-28T13:48:29;25.3;;;12.5;;
50165;SDS011;36071;48.140;11.516;2023-02-28T13:53:32;15.5;;;11.4;;
50165;SDS011;36071;48.140;11.516;2023-02-28T13:58:40;52.8;;;28.9;;
50165;SDS011;36071;48.140;11.516;2023-02-28T14:03:33;57.7;;;31.1;;
50165;SDS011;36071;48.140;11.516;2023-02-28T14:08:29;52.6;;;27.4;;
50165;SDS011;36071;48.140;11.516;2023-02-28T14:13:37;20.0;;;11.3;;
50165;SDS011;36071;48.140;11.516;2023-02-28T14:18:30;17.1;;;11.5;;
50165;SDS011;36071;48.140;11.516;2023-02-28T14:23:33;19.4;;;13.2;;
50165;SDS011;36071;48.140;11.516;2023-02-28T14:28:34;16.7;;;10.8;;
50165;SDS011;36071;48.140;11.516;2023-02-28T14:33:47;22.1;;;11.0;;
50165;SDS011;36071;48.140;11.516;2023-02-28T14:38:29;15.6;;;10.8;;
50165;SDS011;36071;48.140;11.516;2023-02-28T14:43:29;24.9;;;15.1;;
50165;SDS011;36071;48.140;11.516;2023-02-28T14:48:29;17.9;;;11.1;;
50165;SDS011;36071;48.140;11.516;2023-02-28T14:53:30;19.7;;;11.7;;
50165;SDS011;36071;48.140;11.516;2023-02-28T14:58:29;17.5;;;10.6;;
50165;SDS011;36071;48.140;11.516;2023-02-28T15:03:30;17.2;;;10.7;;
50165;SDS011;36071;48.140;11.516;2023-02-28T15:08:29;16.3;;;10.7;;
50165;SDS011;36071;48.140;11.516;2023-02-28T15:13:31;16.4;;;10.3;;
50165;SDS011;36071;48.140;11.516;2023-02-28T15:18:30;17.5;;;11.4;;
50165;SDS011;36071;48.140;11.516;2023-02-28T15:23:29;16.3;;;10.0;;
50165;SDS011;36071;48.140;11.516;2023-02-28T15:28:29;15.6;;;10.3;;
50165;SDS011;36071;48.140;11.516;2023-02-28T15:33:30;16.0;;;10.1;;
50165;SDS011;36071;48.140;11.516;2023-02-28T15:38:29;18.0;;;10.3;;
50165;SDS011;36071;48.140;11.516;2023-02-28T15:43:29;14.0;;;10.1;;
50165;SDS011;36071;48.140;11.516;2023-02-28T15:48:30;18.5;;;10.8;;
50165;SDS011;36071;48.140;11.516;2023-02-28T15:53:30;14.9;;;10.9;;
50165;SDS011;36071;48.140;11.516;2023-02-28T15:58:29;15.7;;;10.6;;
50165;SDS011;36071;48.140;11.516;2023-02-28T16:03:35;16.7;;;10.4;;
50165;SDS011;36071;48.140;11.516;2023-02-28T16:08:29;18.9;;;11.5;;
50165;SDS011;36071;48.140;11.516;2023-02-28T16:13:29;81.5;;;47.0;;
50165;SDS011;36071;48.140;11.516;2023-02-28T16:18:29;17.6;;;11.7;;
50165;SDS011;36071;48.140;11.516;2023-02-28T16:23:29;22.0;;;13.7;;
50165;SDS011;36071;48.140;11.516;2023-02-28T16:28:30;17.3;;;11.8;;
50165;SDS011;36071;48.140;11.516;2023-02-28T16:33:29;18.2;;;10.7;;
50165;SDS011;36071;48.140;11.516;2023-02-28T16:38:29;17.2;;;11.0;;
50165;SDS011;36071;48.140;11.516;2023-02-28T16:43:29;20.3;;;12.0;;
50165;SDS011;36071;48.140;11.516;2023-02-28T16:48:29;18.6;;;11.6;;
50165;SDS011;36071;48.140;11.516;2023-02-28T16:53:29;20.8;;;11.8;;
50165;SDS011;36071;48.140;11.516;2023-02-28T16:58:29;21.9;;;11.7;;
50165;SDS011;36071;48.140;11.516;2023-02-28T17:03:29;16.0;;;10.7;;
50165;SDS011;36071;48.140;11.516;2023-02-28T17:08:29;17.1;;;11.3;;
50165;SDS011;36071;48.140;11.516;2023-02-28T17:13:31;19.0;;;11.7;;
50165;SDS011;36071;48.140;11.516;2023-02-28T17:18:29;17.6;;;11.1;;
50165;SDS011;36071;48.140;11.516;2023-02-28T17:23:29;19.6;;;11.5;;
50165;SDS011;36071;48.140;11.516;2023-02-28T17:28:29;16.2;;;11.3;;
50165;SDS011;36071;48.140;11.516;2023-02-28T17:33:29;19.5;;;12.0;;
50165;SDS011;36071;48.140;11.516;2023-02-28T17:38:29;19.6;;;12.0;;
50165;SDS011;36071;48.140;11.516;2023-02-28T17:43:29;18.7;;;12.6;;
50165;SDS011;36071;48.140;11.516;2023-02-28T17:48:29;19.8;;;12.2;;
50165;SDS011;36071;48.140;11.516;2023-02-28T17:53:32;20.4;;;12.6;;
50165;SDS011;36071;48.140;11.516;2023-02-28T17:58:31;22.7;;;13.7;;
50165;SDS011;36071;48.140;11.516;2023-02-28T18:03:29;21.5;;;12.4;;
50165;SDS011;36071;48.140;11.516;2023-02-28T18:08:29;19.9;;;12.7;;
50165;SDS011;36071;48.140;11.516;2023-02-28T18:13:29;20.1;;;12.8;;
50165;SDS011;36071;48.140;11.516;2023-02-28T18:18:29;26.0;;;13.1;;
50165;SDS011;36071;48.140;11.516;2023-02-28T18:23:29;23.3;;;13.4;;
50165;SDS011;36071;48.140;11.516;2023-02-28T18:28:29;20.5;;;13.1;;
50165;SDS011;36071;48.140;11.516;2023-02-28T18:33:29;34.3;;;19.3;;
50165;SDS011;36071;48.140;11.516;2023-02-28T18:38:29;35.4;;;19.5;;
50165;SDS011;36071;48.140;11.516;2023-02-28T18:43:29;29.6;;;17.6;;
50165;SDS011;36071;48.140;11.516;2023-02-28T18:48:29;32.0;;;17.5;;
50165;SDS011;36071;48.140;11.516;2023-02-28T18:53:29;29.6;;;15.7;;
50165;SDS011;36071;48.140;11.516;2023-02-28T18:58:29;24.9;;;15.2;;
50165;SDS011;36071;48.140;11.516;2023-02-28T19:03:29;23.7;;;14.0;;
50165;SDS011;36071;48.140;11.516;2023-02-28T19:08:29;24.3;;;14.5;;
50165;SDS011;36071;48.140;11.516;2023-02-28T19:13:29;24.5;;;14.8;;
50165;SDS011;36071;48.140;11.516;2023-02-28T19:18:29;23.6;;;13.9;;
50165;SDS011;36071;48.140;11.516;2023-02-28T19:23:30;27.2;;;14.6;;
50165;SDS011;36071;48.140;11.516;2023-02-28T19:28:29;27.3;;;15.5;;
50165;SDS011;36071;48.140;11.516;2023-02-28T19:33:29;22.7;;;14.2;;
50165;SDS011;36071;48.140;11.516;2023-02-28T19:38:29;27.7;;;14.8;;
50165;SDS011;36071;48.140;11.516;2023-02-28T19:43:29;24.8;;;15.3;;
50165;SDS011;36071;48.140;11.516;2023-02-28T19:48:29;28.1;;;16.4;;
50165;SDS011;36071;48.140;11.516;2023-02-28T19:53:29;28.9;;;16.4;;
50165;SDS011;36071;48.140;11.516;2023-02-28T19:58:29;123.5;;;61.1;;
50165;SDS011;36071;48.140;11.516;2023-02-28T20:03:29;82.6;;;36.6;;
50165;SDS011;36071;48.140;11.516;2023-02-28T20:08:29;44.4;;;25.6;;
50165;SDS011;36071;48.140;11.516;2023-02-28T20:13:29;83.6;;;40.5;;
50165;SDS011;36071;48.140;11.516;2023-02-28T20:18:29;39.6;;;22.2;;
50165;SDS011;36071;48.140;11.516;2023-02-28T20:23:29;34.3;;;18.3;;
50165;SDS011;36071;48.140;11.516;2023-02-28T20:28:29;34.1;;;19.3;;
50165;SDS011;36071;48.140;11.516;2023-02-28T20:33:29;31.5;;;18.1;;
50165;SDS011;36071;48.140;11.516;2023-02-28T20:38:29;35.9;;;19.3;;
50165;SDS011;36071;48.140;11.516;2023-02-28T20:43:29;33.4;;;18.7;;
50165;SDS011;36071;48.140;11.516;2023-02-28T20:48:29;32.5;;;18.6;;
50165;SDS011;36071;48.140;11.516;2023-02-28T20:53:29;32.7;;;17.7;;
50165;SDS011;36071;48.140;11.516;2023-02-28T20:58:29;33.0;;;19.0;;
50165;SDS011;36071;48.140;11.516;2023-02-28T21:03:29;56.9;;;27.3;;
50165;SDS011;36071;48.140;11.516;2023-02-28T21:08:29;29.2;;;16.3;;
50165;SDS011;36071;48.140;11.516;2023-02-28T21:13:29;28.6;;;16.9;;
50165;SDS011;36071;48.140;11.516;2023-02-28T21:18:29;31.2;;;17.2;;
50165;SDS011;36071;48.140;11.516;2023-02-28T21:23:29;62.0;;;30.4;;
50165;SDS011;36071;48.140;11.516;2023-02-28T21:28:29;64.2;;;29.6;;
50165;SDS011;36071;48.140;11.516;2023-02-28T21:33:29;33.8;;;18.8;;
50165;SDS011;36071;48.140;11.516;2023-02-28T21:38:29;28.1;;;16.7;;
50165;SDS011;36071;48.140;11.516;2023-02-28T21:43:29;64.1;;;32.5;;
50165;SDS011;36071;48.140;11.516;2023-02-28T21:48:29;32.5;;;18.0;;
50165;SDS011;36071;48.140;11.516;2023-02-28T21:53:29;34.7;;;17.9;;
50165;SDS011;36071;48.140;11.516;2023-02-28T21:58:29;28.9;;;16.9;;
50165;SDS011;36071;48.140;11.516;2023-02-28T22:03:29;25.4;;;15.8;;
50165;SDS011;36071;48.140;11.516;2023-02-28T22:08:29;110.3;;;49.0;;
50165;SDS011;36071;48.140;11.516;2023-02-28T22:13:29;89.0;;;40.2;;
50165;SDS011;36071;48.140;11.516;2023-02-28T22:18:29;34.9;;;17.0;;
50165;SDS011;36071;48.140;11.516;2023-02-28T22:23:29;29.4;;;17.4;;
50165;SDS011;36071;48.140;11.516;2023-02-28T22:28:29;25.7;;;16.1;;
50165;SDS011;36071;48.140;11.516;2023-02-28T22:33:29;30.1;;;17.8;;
50165;SDS011;36071;48.140;11.516;2023-02-28T22:38:29;29.0;;;17.2;;
50165;SDS011;36071;48.140;11.516;2023-02-28T22:43:29;27.4;;;16.4;;
50165;SDS011;36071;48.140;11.516;2023-02-28T22:48:29;36.1;;;20.3;;
50165;SDS011;36071;48.140;11.516;2023-02-28T22:53:29;39.0;;;20.9;;
50165;SDS011;36071;48.140;11.516;2023-02-28T22:58:29;67.4;;;32.1;;
50165;SDS011;36071;48.140;11.516;2023-02-28T23:03:29;40.3;;;22.0;;
50165;SDS011;36071;48.140;11.516;2023-02-28T23:08:29;33.1;;;18.1;;
50165;SDS011;36071;48.140;11.516;2023-02-28T23:13:29;27.7;;;17.3;;
50165;SDS011;36071;48.140;11.516;2023-02-28T23:18:29;27.8;;;16.9;;
50165;SDS011;36071;48.140;11.516;2023-02-28T23:23:29;27.1;;;16.7;;
50165;SDS011;36071;48.140;11.516;2023-02-28T23:28:29;26.2;;;15.5;;
50165;SDS011;36071;48.140;11.516;2023-02-28T23:33:29;30.5;;;17.5;;
50165;SDS011;36071;48.140;11.516;2023-02-28T23:38:29;28.8;;;16.6;;
50165;SDS011;36071;48.140;11.516;2023-02-28T23:43:29;25.6;;;16.3;;
50165;SDS011;36071;48.140;11.516;2023-02-28T23:48:29;27.3;;;16.7;;
50165;SDS011;36071;48.140;11.516;2023-02-28T23:53:29;28.9;;;17.4;;
50165;SDS011;36071;48.140;11.516;2023-02-28T23:58:29;28.4;;;16.2;;
